Arkadelphia, Alabama
Current Conditions -  °F | °C
As of 7:15 AM on Thursday 18 Dec 2014 (Local Time) from KJFX Reporting Station
Light Rain Light Rain  
Wind Chill: 39°   Ceiling: Unl
Heat Index: 39°   Visibility: 7mi
Dew Point: 36°   Wind: 3mph
Humidity: 87%   Direction: 130°SE
Pressure: 30.22"   Gusts: NA
Location:  33.9511°N, 87.0046°W
Report Text: KJFX 181315Z AUTO 13003KT 7SM -RA CLR 04/02 A3022 RMK A02 P-128
Loading
Personal Weather Stations






























Interactive Weather Map New forecast layout! Learn more

10-Day Weather Forecast

Advertisements
Track Severe Weather on mobile